RKTN/TAE METAR and TAF weather

Enter ICAO airport designator
Station Type Date Time Source
RKTN METAR 2021/09/23 17:00 UTC NOAA

RKTN 231700Z 08001KT CAVOK 16/14 Q1021


Station Type Date Time Source
RKTN Decoded METAR 2021/09/23 17:00 UTC NOAA

Taegu Ab, Korea, South (RKTN) 35-54N 128-39E 37M
Sep 23, 2021 - 01:00 PM EDT / 2021.09.23 1700 UTC
Wind: from the E (080 degrees) at 1 MPH (1 KT):0
Visibility: greater than 7 mile(s):0
Temperature: 60 F (16 C)
Dew Point: 57 F (14 C)
Relative Humidity: 87%
Pressure (altimeter): 30.15 in. Hg (1021 hPa)
ob: RKTN 231700Z 08001KT CAVOK 16/14 Q1021
cycle: 17

Station Type Date Time Source
RKTN TAF 2021/09/23 18:06 UTC NOAA

TAF RKTN 231700Z 2318/2424 09006KT 9999 SCT030 TX25/2406Z TN17/2421Z
BECMG 2401/2402 09011KT BKN030

Example: see airport list